Terminal Aerodrome Forecast
Issued by NWS

Home | Current Version | Previous Version | Text Only | Print | Product List | Glossary On
Versions: 1 2 3 4 5 6 7 8 9 10 11 12 13 14
000
FTUS44 KLZK 301700
TAFADF
TAF
KADF 301738Z 3018/3118 12006KT P6SM SKC
     FM302100 16007KT P6SM SKC
     FM310300 VRB04KT P6SM SCT025 BKN050
     FM310900 VRB04KT P6SM VCSH OVC025 PROB30 3109/3115 5SM -SHRA BR
      OVC015
     FM311500 25004KT P6SM OVC015=

USA.gov is the U.S. government's official web portal to all federal, state and local government web resources and services.